createdAt,value
2018-03-16T00:00:46.033Z,10
2018-03-16T00:01:48.499Z,9.7
2018-03-16T00:02:50.935Z,9.7
2018-03-16T00:03:53.405Z,9.8
2018-03-16T00:04:55.867Z,9.6
2018-03-16T00:05:58.404Z,9.4
2018-03-16T00:07:01.209Z,9.7
2018-03-16T00:08:04.399Z,9.6
2018-03-16T00:09:06.901Z,9.7
2018-03-16T00:10:09.659Z,9.3
2018-03-16T00:11:12.245Z,9.5
2018-03-16T00:12:15.881Z,9.6
2018-03-16T00:13:18.353Z,9.6
2018-03-16T00:14:20.819Z,10.1
2018-03-16T00:15:23.394Z,9.6
2018-03-16T00:16:26.610Z,9.5
2018-03-16T00:17:29.043Z,9.5
2018-03-16T00:18:31.914Z,9.7
2018-03-16T00:19:34.499Z,9.9
2018-03-16T00:20:36.954Z,9.9
2018-03-16T00:21:39.509Z,9.9
2018-03-16T00:22:42.030Z,9.7
2018-03-16T00:23:44.546Z,9.9
2018-03-16T00:24:47.217Z,9.8
2018-03-16T00:25:49.674Z,9.4
2018-03-16T00:26:52.198Z,9.4
2018-03-16T00:27:54.717Z,9.8
2018-03-16T00:28:57.343Z,9.6
2018-03-16T00:29:59.869Z,9.4
2018-03-16T00:31:02.479Z,9.6
2018-03-16T00:32:05.109Z,9.9
2018-03-16T00:33:07.679Z,9.9
2018-03-16T00:34:10.141Z,9.7
2018-03-16T00:35:12.588Z,10
2018-03-16T00:36:15.140Z,10.1
2018-03-16T00:37:17.614Z,10
2018-03-16T00:38:20.098Z,9.9
2018-03-16T00:39:22.577Z,9.5
2018-03-16T00:40:25.709Z,9.5
2018-03-16T00:41:28.159Z,9.6
2018-03-16T00:42:30.715Z,9.5
2018-03-16T00:43:33.505Z,9.7
2018-03-16T00:44:36.038Z,9.7
2018-03-16T00:45:39.014Z,9.9
2018-03-16T00:46:41.504Z,9.7
2018-03-16T00:47:45.308Z,9.6
2018-03-16T00:48:50.490Z,9.8
2018-03-16T00:49:53.035Z,9.7
2018-03-16T00:50:55.470Z,9.9
2018-03-16T00:51:58.067Z,9.9
2018-03-16T00:53:00.690Z,9.7
2018-03-16T00:54:03.277Z,9.9
2018-03-16T00:55:05.897Z,9.8
2018-03-16T00:56:08.415Z,9.6
2018-03-16T00:57:10.983Z,9.7
2018-03-16T00:58:14.245Z,9.8
2018-03-16T00:59:20.885Z,9.6
2018-03-16T01:00:23.364Z,9.8
2018-03-16T01:01:25.814Z,9.6
2018-03-16T01:02:28.322Z,9.5
2018-03-16T01:03:31.063Z,9.5
2018-03-16T01:04:33.533Z,9.5
2018-03-16T01:05:36.101Z,9.6
2018-03-16T01:06:38.616Z,9.5
2018-03-16T01:07:41.211Z,9.6
2018-03-16T01:08:43.693Z,9.7
2018-03-16T01:09:46.218Z,9.8
2018-03-16T01:10:48.715Z,9.7
2018-03-16T01:11:51.247Z,9.6
2018-03-16T01:12:53.723Z,9.6
2018-03-16T01:13:56.179Z,9.7
2018-03-16T01:14:58.634Z,9.7
2018-03-16T01:16:01.212Z,9.6
2018-03-16T01:17:03.903Z,9.6
2018-03-16T01:18:06.701Z,9.6
2018-03-16T01:19:09.683Z,9.4
2018-03-16T01:20:12.187Z,9.4
2018-03-16T01:21:14.580Z,9.6
2018-03-16T01:22:17.109Z,9.6
2018-03-16T01:23:19.573Z,9.4
2018-03-16T01:24:22.112Z,9.5
2018-03-16T01:25:24.591Z,9.4
2018-03-16T01:26:27.049Z,9.4
2018-03-16T01:27:29.483Z,9.3
2018-03-16T01:28:32.088Z,9.4
2018-03-16T01:29:34.658Z,9.5
2018-03-16T01:30:37.127Z,9.3
2018-03-16T01:31:39.646Z,9.3
2018-03-16T01:32:42.234Z,9.3
2018-03-16T01:33:44.685Z,9.3
2018-03-16T01:34:47.140Z,9.2
2018-03-16T01:35:49.593Z,9.3
2018-03-16T01:36:52.059Z,9.4
2018-03-16T01:37:54.526Z,9.4
2018-03-16T01:38:56.982Z,9.4
2018-03-16T01:39:59.378Z,9.4
2018-03-16T01:41:01.873Z,9.5
2018-03-16T01:42:04.418Z,9.4
2018-03-16T01:43:07.261Z,9.4
2018-03-16T01:44:09.941Z,9.5
2018-03-16T01:45:12.530Z,9.6
2018-03-16T01:46:15.081Z,9.5
2018-03-16T01:47:17.494Z,9.4
2018-03-16T01:48:20.053Z,9.3
2018-03-16T01:49:22.646Z,9.3
2018-03-16T01:50:25.454Z,9.4
2018-03-16T01:51:27.861Z,9.2
2018-03-16T01:52:30.285Z,9.4
2018-03-16T01:53:32.799Z,9.3
2018-03-16T01:54:35.262Z,9.4
2018-03-16T01:55:37.704Z,9.4
2018-03-16T01:56:40.178Z,9.2
2018-03-16T01:57:42.651Z,9.3
2018-03-16T01:58:45.144Z,9.2
2018-03-16T01:59:47.654Z,9.2
2018-03-16T02:00:50.076Z,9.1
2018-03-16T02:01:52.800Z,9.2
2018-03-16T02:02:55.293Z,9.2
2018-03-16T02:03:57.669Z,9
2018-03-16T02:05:00.040Z,8.9
2018-03-16T02:06:02.628Z,8.8
2018-03-16T02:07:05.117Z,8.7
2018-03-16T02:08:07.756Z,9.1
2018-03-16T02:09:10.320Z,9.3
2018-03-16T02:10:12.934Z,9.1
2018-03-16T02:11:17.354Z,9.3
2018-03-16T02:12:20.766Z,9.3
2018-03-16T02:13:23.168Z,9.1
2018-03-16T02:14:25.704Z,9.2
2018-03-16T02:15:28.120Z,9.3
2018-03-16T02:16:30.558Z,9.2
2018-03-16T02:17:33.143Z,9.3
2018-03-16T02:18:35.659Z,9.1
2018-03-16T02:19:38.642Z,8.9
2018-03-16T02:20:41.072Z,8.9
2018-03-16T02:21:43.877Z,9.1
2018-03-16T02:22:46.471Z,9.2
2018-03-16T02:23:49.013Z,8.9
2018-03-16T02:24:51.486Z,8.7
2018-03-16T02:25:53.931Z,9
2018-03-16T02:26:56.326Z,9.1
2018-03-16T02:27:58.778Z,8.9
2018-03-16T02:29:01.574Z,8.9
2018-03-16T02:30:04.069Z,8.9
2018-03-16T02:31:06.656Z,8.9
2018-03-16T02:32:09.190Z,9
2018-03-16T02:33:11.714Z,8.8
2018-03-16T02:34:14.158Z,8.5
2018-03-16T02:35:16.567Z,8.5
2018-03-16T02:36:19.579Z,8.6
2018-03-16T02:37:22.141Z,8.8
2018-03-16T02:38:24.645Z,8.6
2018-03-16T02:39:27.099Z,8.6
2018-03-16T02:40:29.626Z,8.3
2018-03-16T02:41:32.124Z,8.2
2018-03-16T02:42:34.658Z,8.4
2018-03-16T02:43:37.302Z,8.4
2018-03-16T02:44:39.768Z,8.6
2018-03-16T02:45:42.191Z,8.6
2018-03-16T02:46:45.108Z,8.6
2018-03-16T02:47:47.561Z,8.5
2018-03-16T02:48:49.964Z,8.4
2018-03-16T02:49:52.426Z,8.5
2018-03-16T02:50:54.886Z,8.2
2018-03-16T02:51:57.314Z,8.3
2018-03-16T02:53:00.062Z,8.5
2018-03-16T02:54:02.693Z,8.4
2018-03-16T02:55:05.575Z,8.2
2018-03-16T02:56:08.158Z,8.3
2018-03-16T02:57:10.631Z,8.3
2018-03-16T02:58:13.352Z,8.5
2018-03-16T02:59:15.815Z,8.3
2018-03-16T03:00:18.266Z,8.3
2018-03-16T03:01:20.671Z,7.9
2018-03-16T03:02:23.238Z,7.8
2018-03-16T03:03:25.684Z,7.8
2018-03-16T03:04:28.686Z,7.8
2018-03-16T03:05:31.693Z,7.7
2018-03-16T03:06:34.133Z,7.7
2018-03-16T03:07:36.679Z,7.5
2018-03-16T03:08:39.439Z,8
2018-03-16T03:09:41.971Z,7.9
2018-03-16T03:10:44.399Z,7.7
2018-03-16T03:11:46.844Z,7.9
2018-03-16T03:12:49.492Z,8.2
2018-03-16T03:13:52.132Z,7.9
2018-03-16T03:14:54.551Z,7.9
2018-03-16T03:15:56.976Z,7.9
2018-03-16T03:16:59.387Z,7.6
2018-03-16T03:18:01.838Z,7.6
2018-03-16T03:19:04.338Z,7.5
2018-03-16T03:20:06.804Z,7.6
2018-03-16T03:21:09.314Z,7.7
2018-03-16T03:22:11.863Z,7.8
2018-03-16T03:23:14.317Z,7.7
2018-03-16T03:24:16.815Z,7.7
2018-03-16T03:25:19.511Z,7.9
2018-03-16T03:26:22.094Z,7.6
2018-03-16T03:27:24.646Z,7.4
2018-03-16T03:28:27.039Z,7.4
2018-03-16T03:29:29.562Z,7.4
2018-03-16T03:30:32.090Z,7.4
2018-03-16T03:31:35.429Z,7.7
2018-03-16T03:32:48.092Z,7.7
2018-03-16T03:33:50.509Z,7.5
2018-03-16T03:34:53.200Z,7.4
2018-03-16T03:35:56.338Z,7.6
2018-03-16T03:36:58.774Z,7.4
2018-03-16T03:38:01.632Z,7.4
2018-03-16T03:39:04.285Z,7.4
2018-03-16T03:40:06.890Z,7.3
2018-03-16T03:41:09.382Z,7.4
2018-03-16T03:42:11.986Z,7.5
2018-03-16T03:43:14.885Z,7.6
2018-03-16T03:44:17.389Z,7.5
2018-03-16T03:45:19.840Z,7.8
2018-03-16T03:46:23.516Z,7.4
2018-03-16T03:47:26.746Z,7.3
2018-03-16T03:48:31.049Z,7.3
2018-03-16T03:49:35.025Z,7.3
2018-03-16T03:50:37.532Z,7.4
2018-03-16T03:51:40.066Z,7.3
2018-03-16T03:52:42.523Z,7.1
2018-03-16T03:53:45.006Z,7.3
2018-03-16T03:54:47.540Z,7.4
2018-03-16T03:55:50.354Z,7.5
2018-03-16T03:56:52.931Z,7.5
2018-03-16T03:57:55.315Z,7.3
2018-03-16T03:58:57.733Z,7.3
2018-03-16T04:00:00.234Z,7.4
2018-03-16T04:01:02.832Z,7.2
2018-03-16T04:02:05.309Z,7
2018-03-16T04:03:07.895Z,7.2
2018-03-16T04:04:10.366Z,7.5
2018-03-16T04:05:12.869Z,7.5
2018-03-16T04:06:15.516Z,7.3
2018-03-16T04:07:18.057Z,7.2
2018-03-16T04:08:20.476Z,7.1
2018-03-16T04:09:22.867Z,7.3
2018-03-16T04:10:25.265Z,7.6
2018-03-16T04:11:27.727Z,7.5
2018-03-16T04:12:30.125Z,7.6
2018-03-16T04:13:32.628Z,7.4
2018-03-16T04:14:35.125Z,7.3
2018-03-16T04:15:37.622Z,7
2018-03-16T04:16:40.110Z,7.4
2018-03-16T04:17:42.593Z,7.2
2018-03-16T04:18:45.055Z,7.1
2018-03-16T04:19:47.525Z,7.2
2018-03-16T04:20:49.959Z,7.2
2018-03-16T04:21:52.377Z,7.1
2018-03-16T04:22:54.905Z,7.3
2018-03-16T04:23:57.374Z,7.2
2018-03-16T04:24:59.768Z,7.3
2018-03-16T04:26:02.309Z,7.1
2018-03-16T04:27:04.833Z,7.4
2018-03-16T04:28:09.392Z,7.2
2018-03-16T04:29:11.933Z,7.3
2018-03-16T04:30:14.448Z,7.1
2018-03-16T04:31:16.910Z,7.1
2018-03-16T04:32:19.413Z,7.1
2018-03-16T04:33:21.864Z,7.2
2018-03-16T04:34:24.270Z,7.1
2018-03-16T04:35:26.689Z,6.9
2018-03-16T04:36:29.090Z,7
2018-03-16T04:37:31.534Z,7.2
2018-03-16T04:38:34.042Z,7.1
2018-03-16T04:39:36.489Z,7
2018-03-16T04:40:38.944Z,7.3
2018-03-16T04:41:41.347Z,7.2
2018-03-16T04:42:44.155Z,7
2018-03-16T04:43:46.662Z,6.9
2018-03-16T04:44:49.105Z,7
2018-03-16T04:45:51.507Z,6.9
2018-03-16T04:46:54.065Z,7
2018-03-16T04:47:56.534Z,7
2018-03-16T04:48:58.942Z,6.8
2018-03-16T04:50:01.402Z,7
2018-03-16T04:51:03.973Z,7
2018-03-16T04:52:06.468Z,7
2018-03-16T04:53:08.950Z,6.9
2018-03-16T04:54:11.469Z,6.7
2018-03-16T04:55:14.016Z,6.7
2018-03-16T04:56:17.629Z,6.9
2018-03-16T04:57:21.829Z,6.8
2018-03-16T04:58:24.761Z,6.8
2018-03-16T04:59:27.167Z,6.9
2018-03-16T05:00:29.645Z,6.8
2018-03-16T05:01:37.587Z,6.9
2018-03-16T05:02:40.673Z,6.9
2018-03-16T05:03:43.178Z,7.1
2018-03-16T05:04:45.590Z,7.1
2018-03-16T05:05:48.030Z,7
2018-03-16T05:06:50.456Z,7.2
2018-03-16T05:07:52.892Z,7
2018-03-16T05:08:55.333Z,6.8
2018-03-16T05:09:57.746Z,6.5
2018-03-16T05:11:00.209Z,6.5
2018-03-16T05:12:02.796Z,6.3
2018-03-16T05:13:05.302Z,6.5
2018-03-16T05:14:07.844Z,6.6
2018-03-16T05:15:10.304Z,6.6
2018-03-16T05:16:12.806Z,6.4
2018-03-16T05:17:15.244Z,6.6
2018-03-16T05:18:17.719Z,6.5
2018-03-16T05:19:20.114Z,6.6
2018-03-16T05:20:22.622Z,6.5
2018-03-16T05:21:25.122Z,6.8
2018-03-16T05:22:27.588Z,6.8
2018-03-16T05:23:29.993Z,6.6
2018-03-16T05:24:32.486Z,6.3
2018-03-16T05:25:34.982Z,6.2
2018-03-16T05:26:37.777Z,6.4
2018-03-16T05:27:40.387Z,6.6
2018-03-16T05:28:42.854Z,6.7
2018-03-16T05:29:45.526Z,6.8
2018-03-16T05:30:48.370Z,6.6
2018-03-16T05:31:51.539Z,6.8
2018-03-16T05:32:54.202Z,6.7
2018-03-16T05:33:56.780Z,6.6
2018-03-16T05:34:59.277Z,6.7
2018-03-16T05:36:01.723Z,6.6
2018-03-16T05:37:04.245Z,6.6
2018-03-16T05:38:07.506Z,6.6
2018-03-16T05:39:10.202Z,6.5
2018-03-16T05:40:12.765Z,6.6
2018-03-16T05:41:15.218Z,6.7
2018-03-16T05:42:18.238Z,6.6
2018-03-16T05:43:20.810Z,6.6
2018-03-16T05:44:23.377Z,6.6
2018-03-16T05:45:26.954Z,6.8
2018-03-16T05:46:30.468Z,6.6
2018-03-16T05:47:33.319Z,6.7
2018-03-16T05:48:35.784Z,6.5
2018-03-16T05:49:38.306Z,6.5
2018-03-16T05:50:40.777Z,6.7
2018-03-16T05:51:43.489Z,6.6
2018-03-16T05:52:46.018Z,6.6
2018-03-16T05:53:48.457Z,6.4
2018-03-16T05:54:50.976Z,6.7
2018-03-16T05:55:53.405Z,6.6
2018-03-16T05:56:55.854Z,6.6
2018-03-16T05:57:58.336Z,6.5
2018-03-16T05:59:00.838Z,6.8
2018-03-16T06:00:03.360Z,6.4
2018-03-16T06:01:05.894Z,6.4
2018-03-16T06:02:08.601Z,6.5
2018-03-16T06:03:11.518Z,6.6
2018-03-16T06:04:14.312Z,6.5
2018-03-16T06:05:16.873Z,6.5
2018-03-16T06:06:19.406Z,6.4
2018-03-16T06:07:21.870Z,6.4
2018-03-16T06:08:24.524Z,6.4
2018-03-16T06:09:26.991Z,6.3
2018-03-16T06:10:29.457Z,6.4
2018-03-16T06:11:32.024Z,6.3
2018-03-16T06:12:34.758Z,6.6
2018-03-16T06:13:37.255Z,6.2
2018-03-16T06:14:39.972Z,6.2
2018-03-16T06:15:42.575Z,6.1
2018-03-16T06:16:45.346Z,6.3
2018-03-16T06:17:48.013Z,6.3
2018-03-16T06:18:50.704Z,6.5
2018-03-16T06:19:53.342Z,6.5
2018-03-16T06:20:55.931Z,6.4
2018-03-16T06:21:58.474Z,6.2
2018-03-16T06:23:01.059Z,6.1
2018-03-16T06:24:03.808Z,6.3
2018-03-16T06:25:06.501Z,6.2
2018-03-16T06:26:09.155Z,6.1
2018-03-16T06:27:11.895Z,6.1
2018-03-16T06:28:14.717Z,6.3
2018-03-16T06:29:17.477Z,6.3
2018-03-16T06:30:20.236Z,6.3
2018-03-16T06:31:22.753Z,6.2
2018-03-16T06:32:25.431Z,6.2
2018-03-16T06:33:29.588Z,6.3
2018-03-16T06:34:35.068Z,6.4
2018-03-16T06:35:37.592Z,6.1
2018-03-16T06:36:40.346Z,6.2
2018-03-16T06:37:43.100Z,6.1
2018-03-16T06:38:46.312Z,6.2
2018-03-16T06:39:49.085Z,6.2
2018-03-16T06:40:51.680Z,6.2
2018-03-16T06:41:54.371Z,6.1
2018-03-16T06:42:56.889Z,6.2
2018-03-16T06:43:59.472Z,6.2
2018-03-16T06:45:02.218Z,6.1
2018-03-16T06:46:05.017Z,6.1
2018-03-16T06:47:07.641Z,6.1
2018-03-16T06:48:10.544Z,6
2018-03-16T06:49:13.463Z,6
2018-03-16T06:50:16.016Z,6.2
2018-03-16T06:52:29.304Z,6.1
2018-03-16T06:53:32.149Z,6.1
2018-03-16T06:54:39.040Z,6.2
2018-03-16T06:55:43.779Z,6.1
2018-03-16T06:56:46.448Z,6.1
2018-03-16T06:57:49.107Z,6.3
2018-03-16T06:58:51.680Z,6.2
2018-03-16T06:59:54.302Z,6.1
2018-03-16T07:00:56.906Z,6.2
2018-03-16T07:01:59.556Z,5.9
2018-03-16T07:03:02.253Z,6.1
2018-03-16T07:04:05.477Z,6.1
2018-03-16T07:05:08.734Z,6
2018-03-16T07:06:11.450Z,6
2018-03-16T07:07:14.303Z,6.1
2018-03-16T07:08:17.002Z,6.9
2018-03-16T07:09:19.744Z,7.7
2018-03-16T07:10:22.448Z,8.7
2018-03-16T07:11:25.280Z,9.3
2018-03-16T07:12:27.999Z,9.6
2018-03-16T07:13:31.072Z,9.7
2018-03-16T07:14:33.770Z,9.9
2018-03-16T07:15:36.424Z,10.2
2018-03-16T07:16:39.252Z,10.1
2018-03-16T07:17:41.831Z,10
2018-03-16T07:18:44.411Z,10
2018-03-16T07:19:46.975Z,10.3
2018-03-16T07:20:49.562Z,10.3
2018-03-16T07:21:57.471Z,10.3
2018-03-16T07:23:00.709Z,10.3
2018-03-16T07:24:03.514Z,10.4
2018-03-16T07:25:06.168Z,10.4
2018-03-16T07:26:08.866Z,10.6
2018-03-16T07:27:12.193Z,10.7
2018-03-16T07:28:15.513Z,10.9
2018-03-16T07:29:18.233Z,10.9
2018-03-16T07:30:21.224Z,11.1
2018-03-16T07:31:24.239Z,11.1
2018-03-16T07:32:27.194Z,11.1
2018-03-16T07:33:29.984Z,11.3
2018-03-16T07:34:32.458Z,11.1
2018-03-16T07:35:35.353Z,11.2
2018-03-16T07:36:38.149Z,11.3
2018-03-16T07:37:42.297Z,11.4
2018-03-16T07:38:45.905Z,11.5
2018-03-16T07:39:48.591Z,11.5
2018-03-16T07:40:51.144Z,11.6
2018-03-16T07:41:53.752Z,11.7
2018-03-16T07:42:56.220Z,11.8
2018-03-16T07:43:59.559Z,11.8
2018-03-16T07:45:03.138Z,11.9
2018-03-16T07:46:06.119Z,12
2018-03-16T07:47:08.834Z,12
2018-03-16T07:48:11.375Z,12.1
2018-03-16T07:49:14.080Z,12.2
2018-03-16T07:50:16.726Z,12.4
2018-03-16T07:51:19.561Z,12.5
2018-03-16T07:52:22.339Z,12.7
2018-03-16T07:53:25.012Z,12.9
2018-03-16T07:54:27.838Z,12.9
2018-03-16T07:55:30.431Z,13.1
2018-03-16T07:56:41.546Z,13.2
2018-03-16T07:57:44.506Z,13.3
2018-03-16T07:58:47.130Z,13.5
2018-03-16T07:59:49.710Z,13.6
2018-03-16T08:00:52.323Z,13.7
2018-03-16T08:01:55.149Z,13.8
2018-03-16T08:02:57.836Z,14
2018-03-16T08:04:00.711Z,13.9
2018-03-16T08:05:03.666Z,14.1
2018-03-16T08:06:06.523Z,14.3
2018-03-16T08:07:09.551Z,14.5
2018-03-16T08:08:12.253Z,14.6
2018-03-16T08:09:14.997Z,14.6
2018-03-16T08:10:17.571Z,14.5
2018-03-16T08:11:20.297Z,14.5
2018-03-16T08:12:23.017Z,14.5
2018-03-16T08:13:25.941Z,14.5
2018-03-16T08:14:29.258Z,14.6
2018-03-16T08:15:31.827Z,14.7
2018-03-16T08:16:34.562Z,14.9
2018-03-16T08:17:37.452Z,14.8
2018-03-16T08:18:40.207Z,15
2018-03-16T08:19:43.112Z,14.8
2018-03-16T08:20:45.742Z,14.8
2018-03-16T08:21:48.287Z,14.9
2018-03-16T08:22:51.094Z,15.1
2018-03-16T08:23:53.863Z,14.9
2018-03-16T08:24:56.667Z,15.1
2018-03-16T08:25:59.488Z,15.3
2018-03-16T08:27:02.610Z,15.3
2018-03-16T08:28:08.041Z,15.4
2018-03-16T08:29:12.094Z,15.1
2018-03-16T08:30:15.441Z,15.2
2018-03-16T08:31:18.242Z,15.1
2018-03-16T08:32:21.085Z,15.1
2018-03-16T08:33:23.821Z,14.9
2018-03-16T08:34:26.771Z,14.9
2018-03-16T08:35:29.600Z,14.9
2018-03-16T08:36:32.437Z,14.9
2018-03-16T08:37:35.215Z,14.8
2018-03-16T08:38:38.014Z,14.8
2018-03-16T08:39:40.787Z,14.7
2018-03-16T08:40:43.507Z,14.7
2018-03-16T08:41:53.041Z,14.6
2018-03-16T08:42:56.163Z,14.5
2018-03-16T08:43:59.098Z,14.5
2018-03-16T08:45:01.747Z,14.6
2018-03-16T08:46:04.447Z,14.5
2018-03-16T08:47:10.034Z,14.6
2018-03-16T08:48:12.777Z,14.4
2018-03-16T08:49:15.765Z,14.3
2018-03-16T08:50:18.492Z,14.4
2018-03-16T08:51:21.229Z,14.3
2018-03-16T08:52:23.979Z,14.3
2018-03-16T08:53:26.625Z,14.2
2018-03-16T08:54:29.394Z,14.1
2018-03-16T08:55:32.171Z,14.1
2018-03-16T08:56:34.941Z,14.1
2018-03-16T08:57:37.638Z,14
2018-03-16T08:58:40.346Z,14.1
2018-03-16T08:59:43.102Z,14.3
2018-03-16T09:00:45.973Z,14.2
2018-03-16T09:01:48.549Z,14.2
2018-03-16T09:02:51.261Z,14.1
2018-03-16T09:03:54.114Z,14.1
2018-03-16T09:04:56.917Z,14.1
2018-03-16T09:05:59.684Z,14.1
2018-03-16T09:07:02.464Z,14.1
2018-03-16T09:08:05.310Z,14.1
2018-03-16T09:09:08.347Z,14.2
2018-03-16T09:10:11.450Z,14.1
2018-03-16T09:11:14.340Z,14.2
2018-03-16T09:12:17.049Z,14.1
2018-03-16T09:13:19.617Z,14.2
2018-03-16T09:14:22.246Z,14.2
2018-03-16T09:15:24.967Z,14.2
2018-03-16T09:16:27.728Z,14.4
2018-03-16T09:17:30.614Z,14.4
2018-03-16T09:18:33.575Z,14.3
2018-03-16T09:19:36.447Z,14.3
2018-03-16T09:20:39.393Z,14.4
2018-03-16T09:21:42.358Z,14.3
2018-03-16T09:22:45.263Z,14.3
2018-03-16T09:23:48.000Z,14.3
2018-03-16T09:24:50.676Z,14.3
2018-03-16T09:25:54.042Z,14.3
2018-03-16T09:26:56.903Z,14.2
2018-03-16T09:27:59.450Z,14.2
2018-03-16T09:29:02.819Z,14.4
2018-03-16T09:30:05.675Z,14.3
2018-03-16T09:31:08.558Z,14.4
2018-03-16T09:32:12.085Z,14.4
2018-03-16T09:33:15.198Z,14.4
2018-03-16T09:34:18.012Z,14.4
2018-03-16T09:35:20.934Z,14.4
2018-03-16T09:36:23.808Z,14.3
2018-03-16T09:37:26.888Z,14.4
2018-03-16T09:38:30.130Z,14.3
2018-03-16T09:39:32.835Z,14.4
2018-03-16T09:40:35.503Z,14.5
2018-03-16T09:41:43.831Z,14.5
2018-03-16T09:42:47.044Z,14.5
2018-03-16T09:43:49.765Z,14.6
2018-03-16T09:44:52.364Z,14.5
2018-03-16T09:45:55.240Z,14.4
2018-03-16T09:46:57.878Z,14.4
2018-03-16T09:48:00.641Z,14.5
2018-03-16T09:49:03.592Z,14.4
2018-03-16T09:50:06.399Z,14.5
2018-03-16T09:51:09.128Z,14.4
2018-03-16T09:52:11.996Z,14.5
2018-03-16T09:53:15.019Z,14.5
2018-03-16T09:54:17.988Z,14.5
2018-03-16T09:55:20.650Z,14.6
2018-03-16T09:56:23.227Z,14.6
2018-03-16T09:57:26.255Z,14.6
2018-03-16T09:58:29.632Z,14.5
2018-03-16T09:59:32.319Z,14.6
2018-03-16T10:00:35.087Z,14.6
2018-03-16T10:01:37.726Z,14.7
2018-03-16T10:02:41.039Z,14.8
2018-03-16T10:03:45.324Z,14.8
2018-03-16T10:04:48.255Z,14.8
2018-03-16T10:05:51.038Z,14.8
2018-03-16T10:06:53.797Z,15
2018-03-16T10:07:56.912Z,15.2
2018-03-16T10:09:00.631Z,15.2
2018-03-16T10:10:04.705Z,15.3
2018-03-16T10:11:07.565Z,15.5
2018-03-16T10:12:10.644Z,15.5
2018-03-16T10:13:13.908Z,15.5
2018-03-16T10:14:16.906Z,15.6
2018-03-16T10:15:19.827Z,15.9
2018-03-16T10:16:22.609Z,16.1
2018-03-16T10:17:25.491Z,16.3
2018-03-16T10:18:28.090Z,16.3
2018-03-16T10:19:30.704Z,16.3
2018-03-16T10:20:33.292Z,16.4
2018-03-16T10:21:36.035Z,16.5
2018-03-16T10:22:38.807Z,16.5
2018-03-16T10:23:45.454Z,16.4
2018-03-16T10:24:48.232Z,16.5
2018-03-16T10:25:50.971Z,16.4
2018-03-16T10:26:53.663Z,16.5
2018-03-16T10:27:56.572Z,16.4
2018-03-16T10:28:59.606Z,16.4
2018-03-16T10:30:03.266Z,16.4
2018-03-16T10:31:06.260Z,16.4
2018-03-16T10:32:17.257Z,16.5
2018-03-16T10:33:20.413Z,16.4
2018-03-16T10:34:23.855Z,16.4
2018-03-16T10:35:26.861Z,16.3
2018-03-16T10:36:29.465Z,16.3
2018-03-16T10:37:34.070Z,16.3
2018-03-16T10:38:38.198Z,16.3
2018-03-16T10:39:46.101Z,16.2
2018-03-16T10:40:49.122Z,16.1
2018-03-16T10:41:51.931Z,16
2018-03-16T10:42:55.308Z,16
2018-03-16T10:44:01.473Z,16
2018-03-16T10:45:04.806Z,16
2018-03-16T10:46:07.879Z,15.9
2018-03-16T10:47:10.955Z,15.7
2018-03-16T10:48:14.503Z,15.8
2018-03-16T10:49:17.482Z,15.8
2018-03-16T10:50:20.263Z,15.8
2018-03-16T10:51:25.188Z,15.7
2018-03-16T10:52:28.286Z,15.6
2018-03-16T10:53:31.203Z,15.6
2018-03-16T10:54:35.072Z,15.6
2018-03-16T10:55:37.948Z,15.6
2018-03-16T10:56:40.825Z,15.7
2018-03-16T10:57:43.720Z,15.7
2018-03-16T10:58:46.839Z,15.8
2018-03-16T10:59:49.714Z,15.7
2018-03-16T11:00:52.528Z,15.7
2018-03-16T11:01:55.448Z,15.7
2018-03-16T11:02:58.235Z,15.8
2018-03-16T11:04:01.185Z,15.7
2018-03-16T11:05:04.740Z,15.4
2018-03-16T11:06:08.211Z,15.6
2018-03-16T11:07:11.049Z,15.6
2018-03-16T11:08:14.020Z,15.7
2018-03-16T11:09:17.039Z,15.6
2018-03-16T11:10:19.950Z,15.5
2018-03-16T11:11:25.160Z,15.6
2018-03-16T11:12:28.101Z,15.7
2018-03-16T11:13:31.008Z,15.7
2018-03-16T11:14:33.662Z,15.7
2018-03-16T11:15:37.063Z,15.7
2018-03-16T11:16:40.596Z,15.6
2018-03-16T11:17:43.489Z,15.6
2018-03-16T11:18:47.341Z,15.5
2018-03-16T11:19:50.080Z,15.6
2018-03-16T11:20:52.796Z,15.5
2018-03-16T11:21:56.030Z,15.6
2018-03-16T11:22:59.175Z,15.7
2018-03-16T11:24:01.868Z,15.7
2018-03-16T11:25:04.817Z,15.7
2018-03-16T11:26:07.988Z,15.7
2018-03-16T11:27:10.757Z,15.7
2018-03-16T11:28:13.450Z,15.7
2018-03-16T11:29:16.410Z,15.7
2018-03-16T11:30:19.626Z,15.6
2018-03-16T11:31:22.876Z,15.7
2018-03-16T11:32:26.633Z,15.6
2018-03-16T11:33:29.638Z,15.6
2018-03-16T11:34:39.543Z,15.6
2018-03-16T11:35:42.828Z,15.5
2018-03-16T11:36:46.256Z,15.6
2018-03-16T11:37:49.568Z,15.6
2018-03-16T11:38:52.474Z,15.6
2018-03-16T11:39:55.406Z,15.6
2018-03-16T11:40:59.075Z,15.5
2018-03-16T11:42:01.990Z,15.5
2018-03-16T11:43:05.294Z,15.6
2018-03-16T11:44:08.573Z,15.5
2018-03-16T11:45:12.019Z,15.6
2018-03-16T11:47:43.354Z,15.4
2018-03-16T11:48:52.351Z,15.5
2018-03-16T11:49:59.235Z,15.5
2018-03-16T11:51:03.119Z,15.5
2018-03-16T11:52:09.976Z,15.6
2018-03-16T11:54:25.331Z,15.5
2018-03-16T11:55:27.930Z,15.5
2018-03-16T11:56:30.673Z,15.5
2018-03-16T11:57:33.757Z,15.6
2018-03-16T11:58:36.952Z,15.6
2018-03-16T11:59:39.886Z,15.6
2018-03-16T12:00:42.716Z,15.5
2018-03-16T12:01:46.082Z,15.4
2018-03-16T12:02:49.285Z,15.5
2018-03-16T12:03:52.415Z,15.4
2018-03-16T12:04:55.293Z,15.4
2018-03-16T12:05:58.072Z,15.5
2018-03-16T12:07:01.034Z,15.5
2018-03-16T12:08:04.001Z,15.5
2018-03-16T12:09:06.898Z,15.5
2018-03-16T12:10:09.807Z,15.5
2018-03-16T12:11:12.636Z,15.4
2018-03-16T12:12:16.619Z,15.5
2018-03-16T12:13:21.666Z,15.4
2018-03-16T12:14:24.636Z,15.4
2018-03-16T12:16:37.847Z,15.5
2018-03-16T12:18:55.667Z,15.5
2018-03-16T12:19:58.488Z,15.6
2018-03-16T12:21:02.157Z,15.6
2018-03-16T12:22:05.367Z,15.6
2018-03-16T12:23:08.580Z,15.5
2018-03-16T12:24:11.434Z,15.6
2018-03-16T12:25:14.675Z,15.7
2018-03-16T12:26:18.148Z,15.5
2018-03-16T12:27:33.766Z,15.6
2018-03-16T12:29:55.980Z,15.6
2018-03-16T12:30:59.311Z,15.5
2018-03-16T12:32:02.868Z,15.6
2018-03-16T12:33:09.391Z,15.6
2018-03-16T12:34:15.139Z,15.5
2018-03-16T12:35:19.406Z,15.5
2018-03-16T12:36:22.786Z,15.5
2018-03-16T12:37:31.753Z,15.6
2018-03-16T12:38:38.860Z,15.6
2018-03-16T12:39:41.953Z,15.6
2018-03-16T12:40:45.459Z,15.5
2018-03-16T12:41:49.379Z,15.6
2018-03-16T12:42:52.754Z,15.5
2018-03-16T12:43:55.811Z,15.5
2018-03-16T12:45:09.085Z,15.6
2018-03-16T12:46:21.402Z,15.6
2018-03-16T12:47:26.737Z,15.6
2018-03-16T12:48:38.868Z,15.5
2018-03-16T12:49:48.274Z,15.6
2018-03-16T12:50:54.593Z,15.5
2018-03-16T12:52:00.978Z,15.5
2018-03-16T12:53:09.747Z,15.6
2018-03-16T12:54:16.283Z,15.6
2018-03-16T12:55:19.243Z,15.6
2018-03-16T12:56:24.499Z,15.7
2018-03-16T12:57:28.531Z,15.8
2018-03-16T12:58:31.593Z,15.6
2018-03-16T12:59:34.283Z,15.7
2018-03-16T13:00:37.148Z,15.7
2018-03-16T13:01:40.345Z,15.7
2018-03-16T13:02:43.234Z,15.7
2018-03-16T13:03:46.553Z,15.6
2018-03-16T13:04:49.472Z,15.6
2018-03-16T13:05:52.568Z,15.7
2018-03-16T13:06:55.829Z,15.7
2018-03-16T13:07:58.791Z,15.7
2018-03-16T13:09:01.625Z,15.7
2018-03-16T13:10:04.247Z,15.6
2018-03-16T13:11:07.172Z,15.7
2018-03-16T13:12:09.923Z,15.8
2018-03-16T13:13:12.650Z,15.7
2018-03-16T13:14:15.581Z,15.6
2018-03-16T13:15:18.459Z,15.7
2018-03-16T13:16:27.512Z,15.7
2018-03-16T13:17:30.521Z,15.7
2018-03-16T13:18:33.348Z,15.7
2018-03-16T13:19:36.580Z,15.9
2018-03-16T13:20:39.334Z,15.7
2018-03-16T13:21:42.294Z,15.8
2018-03-16T13:22:45.861Z,15.8
2018-03-16T13:23:48.789Z,15.7
2018-03-16T13:24:51.974Z,15.9
2018-03-16T13:25:54.818Z,16.1
2018-03-16T13:26:58.193Z,16.3
2018-03-16T13:28:01.358Z,16.3
2018-03-16T13:29:04.307Z,16.4
2018-03-16T13:30:07.436Z,16.6
2018-03-16T13:31:10.203Z,16.7
2018-03-16T13:32:13.560Z,16.8
2018-03-16T13:33:16.638Z,16.9
2018-03-16T13:34:19.447Z,16.9
2018-03-16T13:35:22.219Z,17
2018-03-16T13:36:25.273Z,17
2018-03-16T13:37:28.098Z,17
2018-03-16T13:38:31.976Z,17.3
2018-03-16T13:39:34.676Z,17.3
2018-03-16T13:40:37.618Z,17.3
2018-03-16T13:41:41.073Z,16.9
2018-03-16T13:42:43.893Z,17.1
2018-03-16T13:43:46.846Z,17
2018-03-16T13:44:49.453Z,16.9
2018-03-16T13:45:52.390Z,17
2018-03-16T13:46:55.973Z,16.9
2018-03-16T13:47:58.857Z,16.8
2018-03-16T13:49:01.980Z,16.9
2018-03-16T13:50:04.715Z,16.8
2018-03-16T13:51:07.800Z,16.9
2018-03-16T13:52:11.013Z,16.7
2018-03-16T13:53:13.995Z,16.6
2018-03-16T13:54:17.152Z,16.6
2018-03-16T13:55:20.426Z,16.6
2018-03-16T13:57:32.535Z,16.4
2018-03-16T13:58:35.518Z,16.4
2018-03-16T13:59:38.369Z,16.3
2018-03-16T14:00:41.449Z,16.3
2018-03-16T14:01:44.351Z,16.2
2018-03-16T14:02:47.558Z,16.1
2018-03-16T14:03:50.748Z,15.9
2018-03-16T14:04:53.659Z,16.1
2018-03-16T14:05:56.880Z,16.1
2018-03-16T14:06:59.917Z,15.9
2018-03-16T14:08:03.010Z,16
2018-03-16T14:09:06.294Z,16
2018-03-16T14:10:09.190Z,16.1
2018-03-16T14:11:12.271Z,16.2
2018-03-16T14:12:16.722Z,16.2
2018-03-16T14:13:19.701Z,16.1
2018-03-16T14:14:22.831Z,16.1
2018-03-16T14:15:25.677Z,16
2018-03-16T14:16:28.719Z,16
2018-03-16T14:17:31.813Z,16
2018-03-16T14:18:42.551Z,16.1
2018-03-16T14:19:46.043Z,16
2018-03-16T14:20:49.153Z,16.1
2018-03-16T14:21:52.513Z,16.1
2018-03-16T14:22:55.294Z,16.1
2018-03-16T14:23:58.885Z,16.1
2018-03-16T14:25:01.854Z,16.1
2018-03-16T14:26:05.287Z,16